Time;durP1;ratioP1;P1;durP2;ratioP2;P2;SDS_P1;SDS_P2;PMS_P1;PMS_P2;Temp;Humidity;BMP_temperature;BMP_pressure;BME280_temperature;BME280_humidity;BME280_pressure;Samples;Min_cycle;Max_cycle;Signal;HPM_P1;HPM_P2
2022/12/14 00:09:40;;;;;;;53.92;22.42;;;-3.30;99.90;;;;;;21087727;28;20028;-78
2022/12/14 00:19:40;;;;;;;56.95;22.65;;;-3.30;99.90;;;;;;21086569;28;20027;-78
2022/12/14 00:29:41;;;;;;;48.67;20.70;;;-3.30;99.90;;;;;;21084357;28;20268;-77
2022/12/14 00:39:42;;;;;;;54.83;20.50;;;-3.30;99.90;;;;;;21149425;28;20032;-79
2022/12/14 00:49:43;;;;;;;48.13;19.70;;;-3.30;99.90;;;;;;21092610;28;20038;-79
2022/12/14 00:59:44;;;;;;;48.17;20.67;;;-3.30;99.90;;;;;;21088714;28;20059;-79
2022/12/14 01:09:45;;;;;;;60.67;22.15;;;-3.30;99.90;;;;;;21089473;28;20039;-80
2022/12/14 01:19:46;;;;;;;52.38;22.08;;;-3.30;99.90;;;;;;21103129;28;20028;-79
2022/12/14 01:29:47;;;;;;;59.90;22.48;;;-3.20;99.90;;;;;;21079444;28;20035;-77
2022/12/14 01:39:48;;;;;;;59.65;24.13;;;-3.30;99.90;;;;;;21079050;28;20035;-79
2022/12/14 01:49:52;;;;;;;48.75;21.67;;;-3.20;99.90;;;;;;21101853;28;20083;-77
2022/12/14 01:59:55;;;;;;;55.10;20.33;;;-3.20;99.90;;;;;;21087515;28;20044;-80
2022/12/14 02:10:00;;;;;;;55.80;22.08;;;-3.20;99.90;;;;;;21098386;28;20024;-79
2022/12/14 02:20:01;;;;;;;51.30;21.80;;;-3.20;99.90;;;;;;21077604;28;20031;-77
2022/12/14 02:30:22;;;;;;;50.38;21.73;;;-3.20;99.90;;;;;;21094653;28;20433;-79
2022/12/14 02:40:22;;;;;;;55.15;22.75;;;-3.10;99.90;;;;;;21094413;28;20043;-79
2022/12/14 02:50:28;;;;;;;50.25;23.80;;;-3.10;99.90;;;;;;21077660;22;20086;-76
2022/12/14 03:00:33;;;;;;;55.85;23.00;;;-3.10;99.90;;;;;;21017973;28;20034;-78
2022/12/14 03:10:44;;;;;;;55.40;20.70;;;-3.10;99.90;;;;;;20997318;28;20060;-79
2022/12/14 03:20:50;;;;;;;55.17;22.92;;;-3.00;99.90;;;;;;20997911;28;20171;-76
2022/12/14 03:31:10;;;;;;;55.17;21.23;;;-2.90;99.90;;;;;;20997569;28;20056;-79
2022/12/14 03:41:11;;;;;;;54.40;23.48;;;-2.90;99.90;;;;;;21012430;28;20044;-78
2022/12/14 03:51:26;;;;;;;53.30;22.35;;;-2.90;99.90;;;;;;20988775;28;20123;-79
2022/12/14 04:01:51;;;;;;;54.97;22.83;;;-2.90;99.90;;;;;;20983349;28;20058;-78
2022/12/14 04:22:28;;;;;;;50.63;22.35;;;-2.90;99.90;;;;;;21000105;28;20104;-78
2022/12/14 04:32:52;;;;;;;55.75;22.58;;;-2.90;99.90;;;;;;20981797;28;20614;-79
2022/12/14 04:42:59;;;;;;;55.20;21.90;;;-2.90;99.90;;;;;;20978499;28;20035;-79
2022/12/14 04:53:09;;;;;;;51.17;21.77;;;-2.90;99.90;;;;;;21008775;28;20024;-78
2022/12/14 05:03:20;;;;;;;54.47;24.43;;;-2.90;99.90;;;;;;21003720;28;20219;-79
2022/12/14 05:13:34;;;;;;;56.08;22.63;;;-2.90;99.90;;;;;;20983548;28;20037;-79
2022/12/14 05:23:35;;;;;;;54.75;24.00;;;-2.80;99.90;;;;;;20985019;28;20036;-77
2022/12/14 05:33:35;;;;;;;65.85;25.80;;;-2.80;99.90;;;;;;20984889;28;20035;-77
2022/12/14 05:43:36;;;;;;;60.80;25.80;;;-2.80;99.90;;;;;;20983106;28;20035;-79
2022/12/14 05:53:39;;;;;;;52.13;21.75;;;-2.70;99.90;;;;;;20980521;28;20036;-79
2022/12/14 06:03:39;;;;;;;61.40;24.30;;;-2.70;99.90;;;;;;20995627;28;20086;-79
2022/12/14 06:13:41;;;;;;;54.20;22.80;;;-2.70;99.90;;;;;;20978001;28;20033;-77
2022/12/14 06:23:43;;;;;;;54.92;22.42;;;-2.60;99.90;;;;;;21006854;28;20036;-77
2022/12/14 06:33:45;;;;;;;59.33;23.48;;;-2.60;99.90;;;;;;21026167;28;20032;-78
2022/12/14 06:43:46;;;;;;;62.00;24.80;;;-2.60;99.90;;;;;;20991504;28;20388;-79
2022/12/14 06:53:53;;;;;;;65.53;25.58;;;-2.60;99.90;;;;;;21000281;28;20442;-78
2022/12/14 07:03:56;;;;;;;65.20;27.05;;;-2.60;99.90;;;;;;21001366;28;20093;-81
2022/12/14 07:13:59;;;;;;;62.03;23.98;;;-2.40;99.90;;;;;;21034535;28;20392;-80
2022/12/14 07:24:00;;;;;;;72.68;28.60;;;-2.30;99.90;;;;;;21000244;28;20488;-78
2022/12/14 07:34:01;;;;;;;63.60;25.90;;;-2.30;99.90;;;;;;21019098;28;20052;-79
2022/12/14 07:44:02;;;;;;;72.97;30.15;;;-2.20;99.90;;;;;;20999202;28;20032;-80
2022/12/14 07:54:05;;;;;;;71.60;28.38;;;-2.00;99.90;;;;;;20953756;28;20029;-79
2022/12/14 08:04:08;;;;;;;77.88;33.00;;;-2.00;99.90;;;;;;20993284;28;20037;-80
2022/12/14 08:14:17;;;;;;;87.85;32.40;;;-2.00;99.90;;;;;;21010831;28;20021;-78
2022/12/14 08:24:18;;;;;;;85.43;33.67;;;-1.90;99.90;;;;;;20991060;28;20032;-79
2022/12/14 08:34:21;;;;;;;78.35;32.92;;;-1.70;99.90;;;;;;20967913;28;20032;-78
2022/12/14 08:44:22;;;;;;;87.80;34.65;;;-1.60;99.90;;;;;;20962160;28;20393;-77
2022/12/14 08:54:23;;;;;;;72.75;32.53;;;-1.50;99.90;;;;;;20942684;22;20044;-77
2022/12/14 09:04:24;;;;;;;75.63;31.15;;;-1.40;99.90;;;;;;20913496;28;20032;-78
2022/12/14 09:14:24;;;;;;;86.05;33.17;;;-1.30;99.90;;;;;;20887916;28;20034;-78
2022/12/14 09:24:27;;;;;;;79.72;33.42;;;-1.10;99.90;;;;;;20832886;28;20040;-78
2022/12/14 09:34:28;;;;;;;82.70;32.78;;;-1.00;99.90;;;;;;20844314;28;20454;-78
2022/12/14 09:44:51;;;;;;;76.53;32.03;;;-1.00;99.90;;;;;;20890073;28;20033;-77
2022/12/14 09:54:53;;;;;;;75.10;31.65;;;-0.80;99.90;;;;;;20934847;28;20041;-77
2022/12/14 10:05:18;;;;;;;65.75;29.40;;;-0.60;99.90;;;;;;20938045;28;20035;-78
2022/12/14 10:15:22;;;;;;;70.43;29.98;;;-0.40;99.90;;;;;;20927693;28;20087;-78
2022/12/14 10:25:29;;;;;;;69.22;28.30;;;0.20;99.90;;;;;;20926968;28;20025;-78
2022/12/14 10:35:30;;;;;;;55.22;25.27;;;0.50;99.90;;;;;;20925839;28;20399;-78
2022/12/14 10:45:53;;;;;;;60.35;26.02;;;0.10;99.90;;;;;;20924337;28;20025;-78
2022/12/14 10:55:58;;;;;;;61.28;28.75;;;0.10;99.90;;;;;;20923508;28;20029;-78
2022/12/14 11:06:18;;;;;;;59.10;27.17;;;0.10;99.90;;;;;;20905123;28;20056;-78
2022/12/14 11:16:51;;;;;;;50.78;24.27;;;0.30;99.90;;;;;;20923002;28;20044;-78
2022/12/14 11:26:57;;;;;;;67.60;28.38;;;0.10;99.90;;;;;;20870294;28;20041;-78
2022/12/14 11:37:31;;;;;;;64.22;28.73;;;0.10;99.90;;;;;;20918024;28;20029;-78
2022/12/14 11:47:32;;;;;;;60.58;26.45;;;0.10;99.90;;;;;;20901404;28;20041;-77
2022/12/14 11:57:57;;;;;;;58.08;25.02;;;0.20;99.90;;;;;;20917502;28;20041;-79
2022/12/14 12:07:59;;;;;;;74.57;28.63;;;0.40;99.90;;;;;;20918602;28;20493;-77
2022/12/14 12:18:16;;;;;;;71.57;29.08;;;0.50;99.90;;;;;;20920083;28;20541;-79
2022/12/14 12:28:23;;;;;;;69.55;29.45;;;0.40;99.90;;;;;;20911619;28;20032;-79
2022/12/14 12:38:31;;;;;;;68.55;27.55;;;0.50;99.90;;;;;;20912001;28;20076;-80
2022/12/14 12:48:39;;;;;;;57.22;26.13;;;0.80;99.90;;;;;;20912776;28;20033;-79
2022/12/14 12:58:39;;;;;;;59.20;26.85;;;0.90;99.90;;;;;;20911010;28;20051;-79
2022/12/14 13:08:44;;;;;;;57.25;24.55;;;0.80;99.90;;;;;;20921716;28;20402;-79
2022/12/14 13:18:49;;;;;;;79.60;32.45;;;0.90;99.90;;;;;;20933296;28;20037;-79
2022/12/14 13:28:52;;;;;;;67.93;28.73;;;0.90;99.90;;;;;;20931227;28;20037;-79
2022/12/14 13:39:18;;;;;;;73.93;29.90;;;1.10;99.90;;;;;;20898381;28;20025;-78
2022/12/14 13:49:21;;;;;;;63.75;26.80;;;1.20;99.90;;;;;;20935171;28;20163;-81
2022/12/14 13:59:34;;;;;;;57.47;25.50;;;1.00;99.90;;;;;;20934145;28;20053;-79
2022/12/14 14:10:01;;;;;;;56.45;25.33;;;0.90;99.90;;;;;;20910214;28;20033;-81
2022/12/14 14:20:34;;;;;;;54.13;23.92;;;0.90;99.90;;;;;;20929112;28;20044;-80
2022/12/14 14:30:40;;;;;;;49.70;24.08;;;0.90;99.90;;;;;;20930152;28;20159;-79
2022/12/14 14:40:50;;;;;;;89.82;26.23;;;0.90;99.90;;;;;;20928648;28;20112;-80
2022/12/14 14:51:21;;;;;;;55.67;22.60;;;0.80;99.90;;;;;;20950856;22;20441;-80
2022/12/14 15:01:28;;;;;;;50.08;21.98;;;0.90;99.90;;;;;;20936586;28;20045;-79
2022/12/14 15:11:40;;;;;;;115.32;29.45;;;0.90;99.90;;;;;;20948667;28;20037;-81
2022/12/14 15:21:40;;;;;;;57.58;23.38;;;0.90;99.90;;;;;;21021364;28;20036;-80
2022/12/14 15:31:43;;;;;;;49.30;20.38;;;0.80;99.90;;;;;;20979415;28;20095;-80
2022/12/14 15:41:44;;;;;;;49.05;20.77;;;0.80;99.90;;;;;;20943365;28;20035;-81
2022/12/14 15:51:48;;;;;;;43.53;18.52;;;0.90;99.90;;;;;;20965095;28;20036;-81
2022/12/14 16:02:22;;;;;;;54.55;21.15;;;1.00;99.90;;;;;;20907441;28;20041;-82
2022/12/14 16:12:46;;;;;;;78.50;30.02;;;1.10;99.90;;;;;;20930472;28;20041;-82
2022/12/14 16:23:21;;;;;;;38.92;16.83;;;1.20;99.90;;;;;;20940518;28;20032;-82
2022/12/14 16:33:23;;;;;;;72.57;26.67;;;1.30;99.90;;;;;;20933904;28;20049;-82
2022/12/14 16:43:39;;;;;;;54.45;22.45;;;1.50;99.90;;;;;;20947461;28;20105;-82
2022/12/14 16:53:51;;;;;;;57.15;18.27;;;1.50;99.90;;;;;;20935584;28;20036;-82
2022/12/14 17:04:05;;;;;;;31.70;13.48;;;1.70;99.90;;;;;;20892646;28;20029;-81
2022/12/14 17:14:06;;;;;;;47.90;22.40;;;1.90;99.90;;;;;;20929230;28;20124;-82
2022/12/14 17:24:14;;;;;;;74.45;18.85;;;2.00;99.90;;;;;;20937121;28;20037;-81
2022/12/14 17:34:17;;;;;;;172.35;20.92;;;2.00;99.90;;;;;;20930482;28;20037;-80
2022/12/14 17:44:21;;;;;;;104.75;17.92;;;1.90;99.90;;;;;;20945641;28;20091;-81
2022/12/14 17:54:22;;;;;;;57.42;17.00;;;1.80;99.90;;;;;;20872652;28;20402;-80
2022/12/14 18:04:23;;;;;;;110.72;20.85;;;1.80;99.90;;;;;;20858699;28;20034;-81
2022/12/14 18:14:24;;;;;;;46.15;16.33;;;1.70;99.90;;;;;;20933887;28;20573;-81
2022/12/14 18:24:25;;;;;;;44.20;16.90;;;1.70;99.90;;;;;;20987889;28;20100;-83
2022/12/14 18:34:26;;;;;;;73.53;18.30;;;1.70;99.90;;;;;;20910644;28;20075;-81
2022/12/14 18:44:26;;;;;;;34.42;13.50;;;1.70;99.90;;;;;;20925556;28;20041;-81
2022/12/14 18:54:27;;;;;;;103.20;38.67;;;1.80;99.90;;;;;;20930793;28;20124;-81
2022/12/14 19:04:28;;;;;;;32.75;12.35;;;1.70;99.90;;;;;;20872826;28;20095;-81
2022/12/14 19:14:29;;;;;;;28.20;12.30;;;1.80;99.90;;;;;;20909991;28;20078;-80
2022/12/14 19:24:30;;;;;;;31.85;13.35;;;1.80;99.90;;;;;;20919528;28;20029;-81
2022/12/14 19:34:31;;;;;;;28.45;11.63;;;1.80;99.90;;;;;;20909247;28;20033;-79
2022/12/14 19:44:34;;;;;;;23.35;9.93;;;1.70;99.90;;;;;;20976703;28;20094;-79
2022/12/14 19:54:38;;;;;;;26.60;11.90;;;1.70;99.90;;;;;;21012433;28;20032;-80
2022/12/14 20:04:39;;;;;;;22.35;10.15;;;1.80;99.90;;;;;;20995383;28;20033;-78
2022/12/14 20:14:41;;;;;;;25.48;11.52;;;1.70;99.90;;;;;;20949315;28;20388;-81
2022/12/14 20:24:45;;;;;;;22.60;10.48;;;1.90;99.90;;;;;;20939829;28;20047;-81
2022/12/14 20:34:46;;;;;;;19.48;9.05;;;1.90;99.90;;;;;;20928898;28;20033;-81
2022/12/14 20:44:47;;;;;;;16.38;8.25;;;1.80;99.90;;;;;;20966451;28;20449;-81
2022/12/14 20:54:48;;;;;;;13.57;7.32;;;1.80;99.90;;;;;;21090247;22;20398;-79
2022/12/14 21:04:49;;;;;;;27.00;12.65;;;1.80;99.90;;;;;;21126652;28;20032;-79
2022/12/14 21:14:52;;;;;;;26.55;11.63;;;1.80;99.90;;;;;;21184021;28;20038;-79
2022/12/14 21:24:53;;;;;;;26.13;11.25;;;1.70;99.90;;;;;;21155393;28;20065;-76
2022/12/14 21:34:54;;;;;;;25.42;9.63;;;1.70;99.90;;;;;;21155381;28;20045;-76
2022/12/14 21:44:56;;;;;;;17.63;8.45;;;1.60;99.90;;;;;;21152068;28;20025;-78
2022/12/14 21:54:58;;;;;;;13.23;7.55;;;1.60;99.90;;;;;;21161285;27;20035;-79
2022/12/14 22:04:59;;;;;;;14.43;7.15;;;1.50;99.90;;;;;;21153186;28;20161;-77
2022/12/14 22:15:00;;;;;;;14.75;7.80;;;1.50;99.90;;;;;;21156030;28;20469;-78
2022/12/14 22:25:01;;;;;;;26.30;10.90;;;1.50;99.90;;;;;;21167900;28;20470;-77
2022/12/14 22:35:02;;;;;;;39.75;17.13;;;1.50;99.90;;;;;;21150938;28;20466;-77
2022/12/14 22:45:03;;;;;;;32.75;14.48;;;1.30;99.90;;;;;;21148997;28;20040;-79
2022/12/14 22:55:04;;;;;;;21.42;11.13;;;1.10;99.90;;;;;;21167183;28;20023;-78
2022/12/14 23:05:07;;;;;;;45.63;11.57;;;1.10;99.90;;;;;;21167135;28;20038;-77
